createdAt,value
2023-02-02T00:02:22.647Z,15.07
2023-02-02T00:04:51.842Z,16.00
2023-02-02T00:07:21.127Z,14.17
2023-02-02T00:09:50.256Z,15.07
2023-02-02T00:12:19.703Z,15.57
2023-02-02T00:14:50.395Z,15.40
2023-02-02T00:17:19.659Z,14.23
2023-02-02T00:19:49.168Z,14.87
2023-02-02T00:22:18.467Z,13.03
2023-02-02T00:24:47.595Z,15.10
2023-02-02T00:27:16.941Z,13.23
2023-02-02T00:29:46.491Z,11.00
2023-02-02T00:32:17.172Z,7.90
2023-02-02T00:34:46.560Z,6.70
2023-02-02T00:37:15.812Z,6.33
2023-02-02T00:39:45.047Z,7.30
2023-02-02T00:42:14.250Z,7.43
2023-02-02T00:45:01.410Z,8.10
2023-02-02T00:47:32.083Z,6.90
2023-02-02T00:50:01.581Z,6.13
2023-02-02T00:52:30.721Z,7.00
2023-02-02T00:54:59.938Z,6.53
2023-02-02T00:57:29.139Z,8.10
2023-02-02T00:59:58.678Z,8.57
2023-02-02T01:02:27.953Z,9.30
2023-02-02T01:04:58.818Z,9.00
2023-02-02T01:07:28.037Z,8.23
2023-02-02T01:09:59.123Z,7.00
2023-02-02T01:12:28.445Z,7.43
2023-02-02T01:14:57.619Z,7.70
2023-02-02T01:17:26.991Z,8.00
2023-02-02T01:19:56.181Z,5.60
2023-02-02T01:22:27.057Z,5.23
2023-02-02T01:24:56.416Z,5.93
2023-02-02T01:27:25.652Z,6.50
2023-02-02T01:29:55.186Z,5.20
2023-02-02T01:32:24.712Z,5.40
2023-02-02T01:34:54.425Z,6.33
2023-02-02T01:37:23.637Z,6.70
2023-02-02T01:39:54.340Z,6.50
2023-02-02T01:42:24.705Z,8.70
2023-02-02T01:45:08.771Z,9.63
2023-02-02T01:47:40.219Z,8.93
2023-02-02T01:50:10.902Z,8.10
2023-02-02T01:52:40.843Z,9.80
2023-02-02T01:55:13.915Z,8.53
2023-02-02T01:57:44.309Z,8.43
2023-02-02T02:00:15.726Z,8.83
2023-02-02T02:02:47.102Z,7.77
2023-02-02T02:05:19.374Z,7.97
2023-02-02T02:07:50.635Z,8.50
2023-02-02T02:10:22.099Z,8.77
2023-02-02T02:12:51.609Z,7.73
2023-02-02T02:15:39.271Z,7.90
2023-02-02T02:18:13.138Z,7.60
2023-02-02T02:21:11.700Z,8.53
2023-02-02T02:24:19.465Z,8.20
2023-02-02T02:26:58.548Z,8.10
2023-02-02T02:29:51.864Z,7.70
2023-02-02T02:32:33.953Z,8.07
2023-02-02T02:35:06.324Z,7.90
2023-02-02T02:37:40.701Z,8.57
2023-02-02T02:40:13.638Z,8.00
2023-02-02T02:42:45.907Z,7.70
2023-02-02T02:45:16.334Z,8.10
2023-02-02T02:47:47.158Z,7.90
2023-02-02T02:50:16.504Z,7.00
2023-02-02T02:52:46.186Z,8.03
2023-02-02T02:55:16.647Z,8.20
2023-02-02T02:57:55.558Z,7.60
2023-02-02T03:00:32.445Z,7.00
2023-02-02T03:03:07.606Z,7.30
2023-02-02T03:05:41.380Z,8.37
2023-02-02T03:08:14.061Z,8.17
2023-02-02T03:10:44.886Z,7.20
2023-02-02T03:13:15.461Z,8.00
2023-02-02T03:15:45.115Z,7.90
2023-02-02T03:18:17.000Z,9.90
2023-02-02T03:20:47.218Z,8.00
2023-02-02T03:23:16.495Z,8.10
2023-02-02T03:25:45.838Z,8.37
2023-02-02T03:28:15.145Z,7.70
2023-02-02T03:30:45.302Z,7.67
2023-02-02T03:33:17.057Z,9.53
2023-02-02T03:35:46.630Z,7.20
2023-02-02T03:38:15.841Z,7.43
2023-02-02T03:40:45.232Z,7.50
2023-02-02T03:43:14.422Z,7.70
2023-02-02T03:45:43.734Z,7.70
2023-02-02T03:48:12.985Z,7.33
2023-02-02T03:50:43.663Z,6.73
2023-02-02T03:53:12.827Z,7.10
2023-02-02T03:55:42.159Z,7.70
2023-02-02T03:58:11.341Z,7.43
2023-02-02T04:00:40.722Z,7.60
2023-02-02T04:03:10.075Z,7.47
2023-02-02T04:05:39.457Z,6.93
2023-02-02T04:08:10.386Z,7.07
2023-02-02T04:10:42.603Z,7.03
2023-02-02T04:13:11.891Z,7.00
2023-02-02T04:15:41.051Z,7.07
2023-02-02T04:18:10.439Z,7.07
2023-02-02T04:20:39.659Z,7.77
2023-02-02T04:23:10.387Z,7.60
2023-02-02T04:25:39.613Z,7.97
2023-02-02T04:28:08.952Z,7.80
2023-02-02T04:30:38.289Z,6.93
2023-02-02T04:33:07.387Z,7.30
2023-02-02T04:35:36.753Z,7.80
2023-02-02T04:38:06.307Z,7.50
2023-02-02T04:40:39.981Z,7.63
2023-02-02T04:43:09.187Z,8.00
2023-02-02T04:45:38.518Z,6.90
2023-02-02T04:48:08.098Z,7.50
2023-02-02T04:50:37.273Z,7.43
2023-02-02T04:53:06.564Z,7.30
2023-02-02T04:55:40.082Z,8.03
2023-02-02T04:58:09.480Z,7.40
2023-02-02T05:00:38.706Z,7.93
2023-02-02T05:03:07.960Z,8.23
2023-02-02T05:05:37.556Z,7.73
2023-02-02T05:08:08.468Z,8.00
2023-02-02T05:10:41.968Z,6.37
2023-02-02T05:13:11.674Z,7.60
2023-02-02T05:15:40.880Z,7.47
2023-02-02T05:18:10.137Z,7.60
2023-02-02T05:20:39.338Z,7.63
2023-02-02T05:23:08.737Z,6.80
2023-02-02T05:25:39.431Z,7.50
2023-02-02T05:28:08.874Z,7.70
2023-02-02T05:30:38.068Z,8.20
2023-02-02T05:33:07.300Z,7.40
2023-02-02T05:35:36.538Z,8.13
2023-02-02T05:38:06.278Z,8.63
2023-02-02T05:40:35.501Z,8.77
2023-02-02T05:43:06.132Z,8.47
2023-02-02T05:45:35.362Z,8.90
2023-02-02T05:48:04.526Z,8.37
2023-02-02T05:50:33.697Z,8.50
2023-02-02T05:53:06.689Z,7.83
2023-02-02T05:55:36.070Z,9.60
2023-02-02T05:58:06.706Z,8.00
2023-02-02T06:00:36.111Z,8.47
2023-02-02T06:03:05.461Z,9.37
2023-02-02T06:05:34.687Z,9.27
2023-02-02T06:08:03.905Z,8.40
2023-02-02T06:10:33.252Z,8.57
2023-02-02T06:13:02.663Z,8.80
2023-02-02T06:15:33.265Z,8.20
2023-02-02T06:18:02.736Z,5.17
2023-02-02T06:20:31.918Z,6.90
2023-02-02T06:23:01.123Z,6.60
2023-02-02T06:25:30.370Z,7.37
2023-02-02T06:28:00.037Z,7.67
2023-02-02T06:30:29.653Z,7.00
2023-02-02T06:33:01.295Z,9.10
2023-02-02T06:35:30.573Z,9.83
2023-02-02T06:38:00.215Z,9.60
2023-02-02T06:40:30.161Z,6.40
2023-02-02T06:42:59.732Z,9.17
2023-02-02T06:45:29.312Z,7.30
2023-02-02T06:48:04.382Z,9.53
2023-02-02T06:50:33.580Z,10.47
2023-02-02T06:53:02.770Z,8.93
2023-02-02T06:55:32.067Z,10.00
2023-02-02T06:58:01.558Z,11.07
2023-02-02T07:00:31.925Z,9.87
2023-02-02T07:03:02.588Z,9.10
2023-02-02T07:05:32.146Z,10.13
2023-02-02T07:08:01.411Z,10.30
2023-02-02T07:11:11.239Z,8.83
2023-02-02T07:13:20.446Z,9.03
2023-02-02T07:15:50.248Z,10.10
2023-02-02T07:18:21.154Z,12.27
2023-02-02T07:20:50.786Z,10.07
2023-02-02T07:23:19.963Z,10.50
2023-02-02T07:25:49.173Z,9.43
2023-02-02T07:28:18.400Z,9.60
2023-02-02T07:30:47.777Z,10.37
2023-02-02T07:33:17.000Z,10.40
2023-02-02T07:35:47.697Z,11.17
2023-02-02T07:38:16.931Z,9.93
2023-02-02T07:40:47.154Z,10.00
2023-02-02T07:43:16.296Z,9.50
2023-02-02T07:45:45.375Z,10.70
2023-02-02T07:48:14.641Z,10.77
2023-02-02T07:50:44.040Z,11.23
2023-02-02T07:53:14.840Z,10.50
2023-02-02T07:55:44.206Z,9.70
2023-02-02T07:58:13.426Z,9.20
2023-02-02T08:00:42.704Z,11.47
2023-02-02T08:03:12.923Z,10.70
2023-02-02T08:05:42.446Z,11.23
2023-02-02T08:08:11.671Z,11.43
2023-02-02T08:10:42.491Z,11.03
2023-02-02T08:13:11.977Z,11.47
2023-02-02T08:15:41.448Z,11.73
2023-02-02T08:18:10.744Z,12.33
2023-02-02T08:20:40.498Z,11.00
2023-02-02T08:23:15.769Z,12.30
2023-02-02T08:25:46.532Z,13.03
2023-02-02T08:28:15.896Z,12.40
2023-02-02T08:30:46.445Z,12.20
2023-02-02T08:33:15.961Z,12.43
2023-02-02T08:35:45.936Z,11.70
2023-02-02T08:38:15.438Z,11.90
2023-02-02T08:40:46.144Z,11.50
2023-02-02T08:43:16.486Z,12.00
2023-02-02T08:46:04.564Z,12.00
2023-02-02T08:48:34.709Z,14.30
2023-02-02T08:51:04.341Z,12.67
2023-02-02T08:53:33.596Z,12.60
2023-02-02T08:56:05.453Z,13.00
2023-02-02T08:58:35.153Z,12.13
2023-02-02T09:01:08.551Z,12.50
2023-02-02T09:03:40.437Z,14.73
2023-02-02T09:06:10.782Z,12.03
2023-02-02T09:08:40.186Z,13.50
2023-02-02T09:11:11.865Z,13.30
2023-02-02T09:13:41.755Z,12.57
2023-02-02T09:16:13.051Z,14.33
2023-02-02T09:18:42.928Z,12.13
2023-02-02T09:21:12.819Z,13.23
2023-02-02T09:23:42.659Z,12.17
2023-02-02T09:26:14.726Z,12.07
2023-02-02T09:28:44.884Z,13.00
2023-02-02T09:31:14.193Z,12.63
2023-02-02T09:33:43.595Z,13.83
2023-02-02T09:36:13.951Z,12.00
2023-02-02T09:38:43.801Z,11.83
2023-02-02T09:41:19.808Z,11.83
2023-02-02T09:43:54.693Z,12.23
2023-02-02T09:46:29.114Z,12.47
2023-02-02T09:49:02.326Z,12.30
2023-02-02T09:51:34.850Z,23.83
2023-02-02T09:54:07.415Z,11.87
2023-02-02T09:56:41.545Z,14.37
2023-02-02T09:59:20.950Z,12.03
2023-02-02T10:01:58.567Z,11.63
2023-02-02T10:04:29.491Z,11.33
2023-02-02T10:07:00.477Z,12.10
2023-02-02T10:09:33.595Z,10.90
2023-02-02T10:12:07.399Z,11.83
2023-02-02T10:14:38.905Z,11.93
2023-02-02T10:17:16.123Z,12.20
2023-02-02T10:19:45.689Z,11.70
2023-02-02T10:22:18.422Z,11.63
2023-02-02T10:24:47.873Z,11.87
2023-02-02T10:27:20.014Z,14.60
2023-02-02T10:29:54.709Z,13.30
2023-02-02T10:32:26.559Z,12.10
2023-02-02T10:35:18.524Z,10.40
2023-02-02T10:37:50.423Z,8.60
2023-02-02T10:40:24.838Z,7.37
2023-02-02T10:43:21.151Z,6.60
2023-02-02T10:45:52.353Z,8.40
2023-02-02T10:48:23.733Z,10.10
2023-02-02T10:50:56.748Z,10.10
2023-02-02T10:53:26.978Z,9.17
2023-02-02T10:55:58.374Z,9.37
2023-02-02T10:58:31.258Z,10.67
2023-02-02T11:01:01.936Z,11.83
2023-02-02T11:03:31.852Z,10.80
2023-02-02T11:06:19.924Z,10.97
2023-02-02T11:08:52.971Z,11.37
2023-02-02T11:11:23.403Z,10.70
2023-02-02T11:13:56.114Z,11.43
2023-02-02T11:16:38.783Z,10.63
2023-02-02T11:19:24.392Z,6.50
2023-02-02T11:21:54.836Z,6.30
2023-02-02T11:24:25.974Z,7.10
2023-02-02T11:26:56.799Z,7.57
2023-02-02T11:29:29.767Z,7.00
2023-02-02T11:31:59.220Z,8.43
2023-02-02T11:34:29.911Z,6.73
2023-02-02T11:37:13.407Z,6.90
2023-02-02T11:39:43.192Z,9.20
2023-02-02T11:42:16.371Z,8.60
2023-02-02T11:44:51.892Z,8.10
2023-02-02T11:47:22.755Z,10.40
2023-02-02T11:49:53.075Z,9.80
2023-02-02T11:52:24.176Z,9.93
2023-02-02T11:54:54.680Z,10.67
2023-02-02T11:57:25.105Z,10.37
2023-02-02T12:00:08.463Z,11.53
2023-02-02T12:02:37.762Z,10.20
2023-02-02T12:05:17.560Z,10.83
2023-02-02T12:07:47.217Z,10.73
2023-02-02T12:10:22.264Z,10.23
2023-02-02T12:12:57.234Z,8.03
2023-02-02T12:15:34.380Z,9.43
2023-02-02T12:18:08.875Z,9.67
2023-02-02T12:20:42.894Z,9.07
2023-02-02T12:23:24.997Z,12.93
2023-02-02T12:25:59.772Z,9.90
2023-02-02T12:28:36.303Z,9.90
2023-02-02T12:31:12.274Z,7.00
2023-02-02T12:33:43.946Z,7.40
2023-02-02T12:36:21.762Z,5.60
2023-02-02T12:39:07.738Z,6.50
2023-02-02T12:41:42.573Z,7.00
2023-02-02T12:44:16.534Z,6.30
2023-02-02T12:46:59.325Z,7.87
2023-02-02T12:49:35.508Z,6.30
2023-02-02T12:52:12.575Z,7.30
2023-02-02T12:54:49.057Z,9.40
2023-02-02T12:57:26.442Z,9.00
2023-02-02T13:00:05.853Z,9.00
2023-02-02T13:02:40.455Z,9.10
2023-02-02T13:08:08.798Z,8.20
2023-02-02T13:10:39.211Z,10.33
2023-02-02T13:13:11.585Z,8.00
2023-02-02T13:15:42.924Z,9.17
2023-02-02T13:18:17.044Z,7.80
2023-02-02T13:20:47.825Z,6.90
2023-02-02T13:23:21.816Z,6.57
2023-02-02T13:25:52.579Z,6.40
2023-02-02T13:28:35.727Z,5.43
2023-02-02T13:31:07.560Z,5.53
2023-02-02T13:33:39.055Z,5.73
2023-02-02T13:36:11.116Z,6.20
2023-02-02T13:38:42.508Z,6.80
2023-02-02T13:41:14.074Z,6.17
2023-02-02T13:43:50.025Z,6.03
2023-02-02T13:46:25.070Z,5.57
2023-02-02T13:49:00.491Z,6.70
2023-02-02T13:51:46.615Z,5.93
2023-02-02T13:54:34.704Z,13.70
2023-02-02T13:57:14.592Z,8.77
2023-02-02T13:59:49.703Z,9.80
2023-02-02T14:02:25.114Z,9.43
2023-02-02T14:04:57.475Z,11.00
2023-02-02T14:07:31.695Z,10.93
2023-02-02T14:10:01.135Z,10.23
2023-02-02T14:12:32.939Z,13.27
2023-02-02T14:15:02.686Z,12.10
2023-02-02T14:17:50.875Z,13.47
2023-02-02T14:20:38.670Z,14.03
2023-02-02T14:23:36.647Z,13.57
2023-02-02T14:26:07.259Z,13.13
2023-02-02T14:28:54.685Z,13.10
2023-02-02T14:31:38.873Z,13.83
2023-02-02T14:34:18.152Z,14.40
2023-02-02T14:36:53.800Z,13.47
2023-02-02T14:39:27.982Z,13.70
2023-02-02T14:42:28.689Z,12.40
2023-02-02T14:45:21.864Z,12.50
2023-02-02T14:47:53.116Z,13.43
2023-02-02T14:50:25.912Z,13.17
2023-02-02T14:53:02.464Z,11.77
2023-02-02T14:55:33.445Z,11.70
2023-02-02T14:58:04.445Z,12.73
2023-02-02T15:00:34.611Z,14.00
2023-02-02T15:03:22.165Z,13.30
2023-02-02T15:06:03.766Z,13.30
2023-02-02T15:08:33.021Z,13.53
2023-02-02T15:11:25.580Z,13.97
2023-02-02T15:13:58.280Z,13.20
2023-02-02T15:16:29.730Z,13.90
2023-02-02T15:19:04.293Z,13.87
2023-02-02T15:21:34.855Z,13.87
2023-02-02T15:24:05.328Z,12.87
2023-02-02T15:26:38.042Z,14.20
2023-02-02T15:29:09.398Z,14.40
2023-02-02T15:31:42.073Z,13.90
2023-02-02T15:34:13.341Z,14.43
2023-02-02T15:36:44.472Z,15.10
2023-02-02T15:39:20.974Z,14.27
2023-02-02T15:42:15.999Z,16.00
2023-02-02T15:44:46.999Z,14.87
2023-02-02T15:47:18.115Z,15.47
2023-02-02T15:49:47.551Z,15.30
2023-02-02T15:52:17.987Z,16.47
2023-02-02T15:54:55.041Z,15.30
2023-02-02T15:57:28.813Z,20.20
2023-02-02T15:59:58.651Z,15.50
2023-02-02T16:02:31.553Z,14.40
2023-02-02T16:05:00.943Z,14.93
2023-02-02T16:07:31.618Z,32.20
2023-02-02T16:10:04.578Z,57.80
2023-02-02T16:12:36.489Z,16.40
2023-02-02T16:15:06.111Z,17.67
2023-02-02T16:17:36.601Z,14.30
2023-02-02T16:20:10.177Z,14.70
2023-02-02T16:22:40.235Z,16.17
2023-02-02T16:25:11.106Z,15.77
2023-02-02T16:27:44.133Z,16.23
2023-02-02T16:30:20.451Z,16.70
2023-02-02T16:32:49.890Z,16.00
2023-02-02T16:35:35.297Z,15.57
2023-02-02T16:38:14.253Z,16.60
2023-02-02T16:40:43.972Z,16.63
2023-02-02T16:43:21.213Z,18.00
2023-02-02T16:45:51.528Z,18.37
2023-02-02T16:48:28.413Z,16.93
2023-02-02T16:51:15.410Z,20.00
2023-02-02T16:53:45.600Z,19.13
2023-02-02T16:56:22.929Z,19.17
2023-02-02T16:58:58.083Z,19.23
2023-02-02T17:01:35.015Z,20.73
2023-02-02T17:04:04.846Z,15.07
2023-02-02T17:06:50.063Z,20.20
2023-02-02T17:09:35.554Z,15.70
2023-02-02T17:12:14.222Z,15.47
2023-02-02T17:14:54.977Z,15.60
2023-02-02T17:17:24.402Z,13.90
2023-02-02T17:19:53.693Z,13.97
2023-02-02T17:22:24.063Z,15.17
2023-02-02T17:24:54.192Z,15.13
2023-02-02T17:27:28.158Z,15.77
2023-02-02T17:30:00.152Z,15.83
2023-02-02T17:32:29.562Z,16.20
2023-02-02T17:34:58.873Z,13.70
2023-02-02T17:37:28.112Z,15.23
2023-02-02T17:39:57.353Z,13.83
2023-02-02T17:42:28.398Z,14.30
2023-02-02T17:44:57.588Z,14.80
2023-02-02T17:47:28.373Z,15.60
2023-02-02T17:49:57.779Z,13.53
2023-02-02T17:52:26.981Z,15.70
2023-02-02T17:54:56.426Z,12.67
2023-02-02T17:57:25.666Z,11.80
2023-02-02T17:59:55.151Z,13.13
2023-02-02T18:02:24.374Z,12.43
2023-02-02T18:04:55.056Z,13.30
2023-02-02T18:07:24.434Z,12.70
2023-02-02T18:09:54.040Z,14.67
2023-02-02T18:12:23.301Z,13.10
2023-02-02T18:14:52.611Z,13.50
2023-02-02T18:17:22.134Z,13.00
2023-02-02T18:19:53.122Z,13.90
2023-02-02T18:22:24.489Z,13.63
2023-02-02T18:24:54.492Z,14.60
2023-02-02T18:27:23.782Z,15.40
2023-02-02T18:29:53.073Z,14.13
2023-02-02T18:32:22.692Z,15.10
2023-02-02T18:34:56.054Z,13.77
2023-02-02T18:37:27.560Z,13.63
2023-02-02T18:39:58.059Z,14.83
2023-02-02T18:42:29.958Z,16.17
2023-02-02T18:44:59.354Z,14.90
2023-02-02T18:47:28.717Z,15.30
2023-02-02T18:49:57.849Z,23.07
2023-02-02T18:52:28.545Z,14.80
2023-02-02T18:54:57.676Z,14.97
2023-02-02T18:57:27.002Z,13.70
2023-02-02T18:59:56.368Z,13.97
2023-02-02T19:02:25.999Z,14.93
2023-02-02T19:05:12.796Z,14.30
2023-02-02T19:07:55.799Z,15.17
2023-02-02T19:10:25.503Z,15.23
2023-02-02T19:12:56.647Z,14.57
2023-02-02T19:15:27.136Z,16.20
2023-02-02T19:17:57.213Z,16.47
2023-02-02T19:20:28.284Z,17.53
2023-02-02T19:23:02.237Z,14.60
2023-02-02T19:25:31.631Z,14.57
2023-02-02T19:28:01.335Z,15.20
2023-02-02T19:30:30.592Z,18.00
2023-02-02T19:33:00.223Z,21.43
2023-02-02T19:35:30.980Z,17.57
2023-02-02T19:38:02.680Z,15.50
2023-02-02T19:40:32.291Z,19.00
2023-02-02T19:43:10.709Z,22.47
2023-02-02T19:45:41.220Z,15.50
2023-02-02T19:48:16.152Z,15.53
2023-02-02T19:50:45.820Z,16.60
2023-02-02T19:53:18.309Z,20.13
2023-02-02T19:55:47.909Z,18.87
2023-02-02T19:58:20.174Z,18.97
2023-02-02T20:00:50.263Z,20.43
2023-02-02T20:03:46.764Z,17.53
2023-02-02T20:06:20.139Z,22.90
2023-02-02T20:08:50.857Z,17.20
2023-02-02T20:11:35.492Z,19.00
2023-02-02T20:14:05.273Z,23.40
2023-02-02T20:16:38.470Z,17.37
2023-02-02T20:19:08.441Z,20.07
2023-02-02T20:21:40.560Z,19.17
2023-02-02T20:24:17.122Z,18.67
2023-02-02T20:26:47.143Z,19.87
2023-02-02T20:29:18.534Z,17.53
2023-02-02T20:31:48.548Z,17.87
2023-02-02T20:34:22.752Z,39.93
2023-02-02T20:36:52.435Z,17.27
2023-02-02T20:39:28.045Z,18.17
2023-02-02T20:41:58.791Z,16.80
2023-02-02T20:44:28.776Z,17.07
2023-02-02T20:46:58.400Z,16.60
2023-02-02T20:49:27.654Z,19.40
2023-02-02T20:51:57.493Z,19.17
2023-02-02T20:54:28.484Z,16.30
2023-02-02T20:56:57.998Z,15.40
2023-02-02T20:59:27.295Z,16.50
2023-02-02T21:01:56.630Z,19.97
2023-02-02T21:04:26.454Z,15.87
2023-02-02T21:06:56.615Z,15.97
2023-02-02T21:09:25.806Z,14.20
2023-02-02T21:11:56.451Z,15.00
2023-02-02T21:14:25.637Z,15.07
2023-02-02T21:17:08.819Z,18.97
2023-02-02T21:19:43.168Z,17.30
2023-02-02T21:22:12.547Z,15.33
2023-02-02T21:24:42.691Z,19.33
2023-02-02T21:27:13.581Z,18.20
2023-02-02T21:29:43.258Z,20.50
2023-02-02T21:32:12.530Z,18.40
2023-02-02T21:34:42.345Z,16.43
2023-02-02T21:37:14.086Z,17.83
2023-02-02T21:39:48.446Z,18.70
2023-02-02T21:42:20.408Z,16.10
2023-02-02T21:44:53.836Z,16.87
2023-02-02T21:47:30.979Z,19.47
2023-02-02T21:50:01.933Z,17.70
2023-02-02T21:52:33.781Z,21.33
2023-02-02T21:55:13.703Z,19.07
2023-02-02T21:57:47.622Z,19.33
2023-02-02T22:00:22.473Z,16.23
2023-02-02T22:02:53.596Z,19.60
2023-02-02T22:05:26.437Z,21.73
2023-02-02T22:07:58.811Z,22.07
2023-02-02T22:10:31.959Z,100.37
2023-02-02T22:13:02.967Z,60.47
2023-02-02T22:15:36.518Z,19.27
2023-02-02T22:18:14.152Z,18.80
2023-02-02T22:20:46.777Z,24.03
2023-02-02T22:23:17.558Z,23.10
2023-02-02T22:25:47.568Z,19.97
2023-02-02T22:28:22.363Z,19.27
2023-02-02T22:30:52.306Z,19.07
2023-02-02T22:33:22.094Z,20.87
2023-02-02T22:35:51.665Z,17.67
2023-02-02T22:38:21.531Z,18.27
2023-02-02T22:40:51.328Z,19.30
2023-02-02T22:43:23.223Z,19.50
2023-02-02T22:45:52.533Z,19.47
2023-02-02T22:48:21.707Z,18.57
2023-02-02T22:50:51.000Z,17.60
2023-02-02T22:53:20.215Z,16.70
2023-02-02T22:55:56.506Z,16.77
2023-02-02T22:58:27.538Z,17.40
2023-02-02T23:00:56.906Z,14.50
2023-02-02T23:03:26.097Z,12.43
2023-02-02T23:05:55.392Z,13.40
2023-02-02T23:08:24.806Z,15.03
2023-02-02T23:10:54.104Z,15.43
2023-02-02T23:13:23.328Z,16.40
2023-02-02T23:15:54.172Z,16.03
2023-02-02T23:18:23.487Z,15.67
2023-02-02T23:20:52.671Z,14.90
2023-02-02T23:23:22.439Z,15.30
2023-02-02T23:25:51.620Z,15.63
2023-02-02T23:28:20.789Z,17.93
2023-02-02T23:30:51.073Z,18.03
2023-02-02T23:33:22.224Z,18.90
2023-02-02T23:35:51.407Z,18.40
2023-02-02T23:38:20.732Z,18.20
2023-02-02T23:40:50.103Z,18.27
2023-02-02T23:43:19.303Z,17.20
2023-02-02T23:45:49.244Z,18.50
2023-02-02T23:48:18.657Z,16.30
2023-02-02T23:50:49.452Z,16.90
2023-02-02T23:53:18.896Z,16.47
2023-02-02T23:55:48.293Z,18.27
2023-02-02T23:58:19.088Z,18.20
